createdAt,value
2018-12-17T00:00:57.602Z,4.11
2018-12-17T00:06:03.290Z,3.90
2018-12-17T00:11:06.710Z,4.05
2018-12-17T00:16:10.415Z,4.01
2018-12-17T00:21:13.748Z,3.90
2018-12-17T00:26:17.012Z,3.73
2018-12-17T00:31:20.207Z,3.75
2018-12-17T00:36:24.215Z,3.77
2018-12-17T00:41:27.647Z,3.85
2018-12-17T00:46:30.823Z,3.88
2018-12-17T00:51:34.048Z,3.83
2018-12-17T00:56:37.395Z,4.00
2018-12-17T01:01:40.870Z,4.02
2018-12-17T01:06:44.159Z,4.10
2018-12-17T01:11:47.532Z,4.05
2018-12-17T01:16:50.773Z,3.80
2018-12-17T01:21:54.406Z,3.91
2018-12-17T01:26:57.560Z,4.04
2018-12-17T01:32:00.803Z,4.08
2018-12-17T01:37:04.270Z,4.38
2018-12-17T01:42:08.587Z,4.35
2018-12-17T01:47:11.915Z,4.54
2018-12-17T01:52:15.099Z,4.43
2018-12-17T01:57:18.354Z,4.40
2018-12-17T02:02:21.757Z,4.25
2018-12-17T02:07:25.104Z,4.26
2018-12-17T02:12:28.406Z,4.40
2018-12-17T02:17:32.135Z,4.33
2018-12-17T02:22:35.657Z,4.21
2018-12-17T02:27:38.981Z,4.19
2018-12-17T02:32:42.180Z,4.23
2018-12-17T02:37:45.516Z,4.21
2018-12-17T02:42:48.995Z,4.11
2018-12-17T02:47:52.258Z,4.12
2018-12-17T02:52:55.586Z,4.01
2018-12-17T02:57:58.847Z,3.76
2018-12-17T03:03:02.447Z,3.68
2018-12-17T03:08:07.006Z,3.64
2018-12-17T03:13:10.538Z,3.61
2018-12-17T03:18:13.763Z,3.75
2018-12-17T03:23:17.079Z,3.79
2018-12-17T03:28:20.442Z,3.82
2018-12-17T03:33:23.699Z,3.80
2018-12-17T03:38:26.982Z,3.83
2018-12-17T03:43:30.532Z,3.79
2018-12-17T03:48:33.749Z,3.98
2018-12-17T03:53:37.050Z,4.00
2018-12-17T03:58:40.307Z,4.06
2018-12-17T04:03:43.811Z,3.99
2018-12-17T04:08:47.444Z,4.02
2018-12-17T04:13:50.785Z,4.07
2018-12-17T04:18:54.092Z,4.11
2018-12-17T04:23:57.355Z,4.06
2018-12-17T04:29:06.835Z,3.94
2018-12-17T04:34:08.046Z,4.03
2018-12-17T04:39:11.269Z,3.98
2018-12-17T04:44:14.743Z,4.00
2018-12-17T04:49:18.068Z,4.08
2018-12-17T04:54:21.322Z,4.16
2018-12-17T04:59:24.689Z,4.16
2018-12-17T05:04:28.077Z,4.12
2018-12-17T05:09:31.451Z,4.15
2018-12-17T05:14:34.816Z,4.20
2018-12-17T05:19:38.012Z,4.04
2018-12-17T05:24:41.294Z,4.02
2018-12-17T05:29:44.662Z,4.10
2018-12-17T05:34:47.945Z,4.03
2018-12-17T05:39:51.177Z,4.04
2018-12-17T05:44:54.597Z,4.14
2018-12-17T05:49:57.849Z,4.30
2018-12-17T05:55:01.150Z,4.34
2018-12-17T06:00:05.267Z,4.15
2018-12-17T06:05:08.781Z,4.01
2018-12-17T06:10:12.056Z,3.90
2018-12-17T06:15:15.408Z,3.83
2018-12-17T06:20:19.824Z,3.82
2018-12-17T06:25:23.091Z,3.97
2018-12-17T06:30:26.728Z,3.89
2018-12-17T06:35:29.903Z,3.98
2018-12-17T06:40:33.289Z,3.81
2018-12-17T06:45:36.528Z,3.79
2018-12-17T06:50:39.839Z,3.79
2018-12-17T06:55:43.222Z,3.85
2018-12-17T07:00:46.649Z,3.69
2018-12-17T07:05:49.937Z,3.66
2018-12-17T07:10:53.312Z,3.43
2018-12-17T07:15:56.906Z,3.41
2018-12-17T07:21:00.924Z,3.14
2018-12-17T07:26:04.490Z,3.09
2018-12-17T07:31:07.731Z,2.90
2018-12-17T07:36:10.966Z,2.87
2018-12-17T07:41:14.281Z,2.72
2018-12-17T07:46:17.559Z,2.86
2018-12-17T07:51:20.762Z,2.88
2018-12-17T07:56:24.055Z,2.81
2018-12-17T08:01:27.534Z,2.88
2018-12-17T08:06:30.859Z,2.77
2018-12-17T08:11:34.056Z,2.73
2018-12-17T08:16:37.462Z,2.84
2018-12-17T08:21:41.205Z,2.80
2018-12-17T08:26:44.568Z,3.02
2018-12-17T08:31:47.746Z,3.04
2018-12-17T08:36:51.016Z,3.16
2018-12-17T08:41:55.364Z,3.60
2018-12-17T08:46:58.752Z,3.77
2018-12-17T08:52:02.122Z,3.94
2018-12-17T08:57:05.354Z,4.00
2018-12-17T09:02:08.822Z,4.27
2018-12-17T09:07:12.096Z,4.57
2018-12-17T09:12:15.295Z,4.66
2018-12-17T09:17:18.769Z,4.84
2018-12-17T09:22:21.997Z,5.04
2018-12-17T09:27:25.373Z,5.12
2018-12-17T09:32:28.685Z,4.99
2018-12-17T09:37:31.976Z,5.04
2018-12-17T09:42:35.292Z,5.17
2018-12-17T09:47:38.685Z,4.84
2018-12-17T09:52:42.040Z,4.66
2018-12-17T09:57:45.309Z,4.59
2018-12-17T10:02:48.741Z,4.67
2018-12-17T10:07:52.130Z,4.61
2018-12-17T10:12:55.336Z,4.72
2018-12-17T10:17:58.601Z,4.85
2018-12-17T10:23:01.860Z,4.86
2018-12-17T10:28:05.137Z,4.77
2018-12-17T10:33:08.543Z,4.45
2018-12-17T10:38:11.793Z,4.31
2018-12-17T10:43:15.116Z,4.22
2018-12-17T10:48:18.580Z,4.08
2018-12-17T10:53:21.871Z,3.97
2018-12-17T10:58:25.160Z,3.83
2018-12-17T11:03:34.009Z,3.98
2018-12-17T11:08:37.480Z,3.85
2018-12-17T11:13:40.766Z,3.96
2018-12-17T11:18:44.238Z,3.91
2018-12-17T11:23:48.441Z,4.01
2018-12-17T11:28:51.862Z,4.15
2018-12-17T11:33:55.282Z,4.21
2018-12-17T11:38:59.142Z,4.30
2018-12-17T11:44:02.433Z,4.40
2018-12-17T11:49:05.896Z,4.33
2018-12-17T11:54:09.180Z,4.28
2018-12-17T11:59:12.565Z,4.30
2018-12-17T12:04:17.952Z,4.38
2018-12-17T12:09:25.918Z,4.51
2018-12-17T12:14:29.207Z,4.51
2018-12-17T12:19:32.670Z,4.34
2018-12-17T12:24:35.969Z,4.09
2018-12-17T12:29:39.195Z,4.11
2018-12-17T12:34:42.636Z,4.01
2018-12-17T12:39:45.918Z,4.28
2018-12-17T12:44:49.241Z,4.33
2018-12-17T12:49:52.637Z,4.49
2018-12-17T12:54:55.831Z,4.61
2018-12-17T12:59:59.362Z,4.60
2018-12-17T13:05:02.847Z,4.40
2018-12-17T13:10:09.890Z,4.09
2018-12-17T13:15:13.283Z,4.04
2018-12-17T13:20:16.600Z,3.96
2018-12-17T13:25:51.818Z,3.93
2018-12-17T13:30:55.265Z,3.96
2018-12-17T13:35:59.307Z,3.97
2018-12-17T13:41:02.386Z,3.76
2018-12-17T13:46:06.755Z,3.74
2018-12-17T13:51:16.723Z,3.73
2018-12-17T13:56:20.126Z,3.64
2018-12-17T14:01:24.666Z,3.65
2018-12-17T14:06:28.042Z,3.75
2018-12-17T14:11:31.393Z,3.70
2018-12-17T14:16:42.109Z,3.66
2018-12-17T14:21:50.940Z,3.73
2018-12-17T14:26:54.510Z,3.85
2018-12-17T14:31:57.885Z,3.88
2018-12-17T14:37:01.282Z,4.04
2018-12-17T14:42:04.731Z,4.11
2018-12-17T14:47:08.313Z,4.10
2018-12-17T14:52:11.708Z,4.18
2018-12-17T14:57:16.355Z,4.30
2018-12-17T15:02:19.652Z,4.13
2018-12-17T15:07:23.108Z,3.93
2018-12-17T15:12:27.121Z,4.04
2018-12-17T15:17:30.714Z,3.92
2018-12-17T15:22:34.015Z,3.73
2018-12-17T15:27:37.975Z,3.61
2018-12-17T15:32:41.404Z,3.30
2018-12-17T15:37:44.818Z,3.28
2018-12-17T15:42:48.140Z,3.34
2018-12-17T15:47:51.486Z,3.33
2018-12-17T15:52:54.920Z,3.43
2018-12-17T15:57:58.278Z,3.37
2018-12-17T16:03:01.653Z,3.38
2018-12-17T16:08:05.047Z,3.63
2018-12-17T16:13:08.534Z,3.63
2018-12-17T16:18:11.945Z,3.68
2018-12-17T16:23:15.435Z,3.72
2018-12-17T16:28:18.834Z,3.76
2018-12-17T16:33:22.259Z,3.84
2018-12-17T16:38:26.829Z,3.78
2018-12-17T16:43:30.220Z,3.83
2018-12-17T16:48:33.496Z,3.89
2018-12-17T16:53:37.100Z,3.76
2018-12-17T16:58:40.412Z,3.60
2018-12-17T17:03:43.842Z,3.63
2018-12-17T17:08:47.336Z,3.59
2018-12-17T17:13:50.673Z,3.55
2018-12-17T17:18:54.048Z,3.61
2018-12-17T17:23:57.808Z,3.66
2018-12-17T17:29:01.112Z,3.62
2018-12-17T17:34:04.995Z,3.53
2018-12-17T17:39:08.754Z,3.53
2018-12-17T17:44:12.208Z,3.59
2018-12-17T17:49:15.557Z,3.66
2018-12-17T17:54:19.462Z,3.63
2018-12-17T17:59:22.809Z,3.39
2018-12-17T18:04:26.029Z,3.35
2018-12-17T18:09:29.587Z,3.20
2018-12-17T18:14:33.021Z,3.04
2018-12-17T18:19:36.512Z,2.80
2018-12-17T18:24:40.002Z,2.76
2018-12-17T18:29:43.579Z,2.62
2018-12-17T18:34:46.890Z,2.59
2018-12-17T18:39:50.417Z,2.38
2018-12-17T18:44:53.802Z,2.19
2018-12-17T18:49:57.946Z,2.13
2018-12-17T18:56:04.351Z,2.23
2018-12-17T19:01:08.529Z,2.12
2018-12-17T19:06:12.797Z,2.21
2018-12-17T19:11:16.960Z,2.10
2018-12-17T19:16:20.934Z,2.06
2018-12-17T19:21:26.002Z,2.14
2018-12-17T19:26:30.678Z,2.06
2018-12-17T19:31:34.810Z,2.12
2018-12-17T19:36:39.298Z,2.13
2018-12-17T19:41:43.422Z,2.17
2018-12-17T19:46:47.428Z,2.14
2018-12-17T19:51:51.618Z,2.19
2018-12-17T19:56:55.810Z,2.15
2018-12-17T20:02:00.368Z,2.24
2018-12-17T20:07:04.801Z,2.33
2018-12-17T20:12:08.747Z,2.27
2018-12-17T20:17:13.959Z,2.03
2018-12-17T20:22:18.305Z,2.02
2018-12-17T20:27:22.638Z,2.11
2018-12-17T20:32:26.493Z,2.06
2018-12-17T20:37:30.370Z,2.08
2018-12-17T20:42:34.305Z,2.13
2018-12-17T20:47:38.378Z,2.16
2018-12-17T20:52:42.900Z,2.27
2018-12-17T20:57:47.080Z,2.30
2018-12-17T21:02:51.234Z,2.27
2018-12-17T21:07:55.301Z,2.19
2018-12-17T21:12:59.622Z,2.01
2018-12-17T21:18:03.622Z,1.95
2018-12-17T21:23:07.739Z,2.02
2018-12-17T21:28:11.584Z,2.05
2018-12-17T21:33:15.617Z,2.05
2018-12-17T21:38:19.773Z,2.03
2018-12-17T21:43:23.685Z,1.98
2018-12-17T21:48:27.512Z,1.88
2018-12-17T21:53:31.688Z,1.90
2018-12-17T21:58:36.741Z,2.03
2018-12-17T22:03:40.729Z,1.94
2018-12-17T22:08:44.751Z,2.10
2018-12-17T22:13:48.530Z,2.14
2018-12-17T22:18:52.351Z,2.44
2018-12-17T22:23:56.167Z,2.54
2018-12-17T22:29:00.058Z,2.63
2018-12-17T22:34:04.141Z,2.61
2018-12-17T22:39:07.969Z,2.85
2018-12-17T22:44:13.039Z,2.88
2018-12-17T22:49:17.029Z,2.70
2018-12-17T22:54:20.924Z,2.72
2018-12-17T22:59:24.936Z,2.67
2018-12-17T23:04:28.723Z,2.69
2018-12-17T23:09:43.747Z,2.87
2018-12-17T23:14:58.732Z,2.76
2018-12-17T23:20:02.665Z,2.79
2018-12-17T23:25:09.207Z,2.94
2018-12-17T23:30:13.211Z,3.06
2018-12-17T23:35:17.135Z,2.93
2018-12-17T23:40:21.076Z,2.78
2018-12-17T23:45:24.952Z,2.70
2018-12-17T23:50:28.872Z,2.67
2018-12-17T23:55:32.894Z,2.62
